createdAt,value
2017-03-20T00:00:51.669Z,0
2017-03-20T00:01:51.303Z,0
2017-03-20T00:02:51.244Z,0
2017-03-20T00:03:51.485Z,0
2017-03-20T00:04:51.421Z,0
2017-03-20T00:05:51.360Z,0
2017-03-20T00:06:51.602Z,0
2017-03-20T00:07:51.238Z,0
2017-03-20T00:08:51.176Z,0
2017-03-20T00:09:51.418Z,0
2017-03-20T00:10:51.350Z,0
2017-03-20T00:11:51.297Z,0
2017-03-20T00:12:51.232Z,0
2017-03-20T00:13:51.169Z,0
2017-03-20T00:14:50.803Z,0
2017-03-20T00:15:50.434Z,0
2017-03-20T00:16:50.979Z,0
2017-03-20T00:17:50.921Z,0
2017-03-20T00:18:50.556Z,0
2017-03-20T00:19:50.493Z,0
2017-03-20T00:20:50.732Z,0
2017-03-20T00:21:50.375Z,0
2017-03-20T00:22:50.615Z,0
2017-03-20T00:23:50.548Z,0
2017-03-20T00:24:50.182Z,0
2017-03-20T00:25:50.117Z,0
2017-03-20T00:26:50.360Z,0
2017-03-20T00:27:50.306Z,0
2017-03-20T00:28:49.936Z,0
2017-03-20T00:29:50.177Z,0
2017-03-20T00:30:50.115Z,0
2017-03-20T00:31:50.054Z,0
2017-03-20T00:32:49.685Z,0
2017-03-20T00:33:49.934Z,0
2017-03-20T00:34:49.577Z,0
2017-03-20T00:35:49.803Z,0
2017-03-20T00:36:49.738Z,0
2017-03-20T00:37:49.375Z,0
2017-03-20T00:38:49.319Z,0
2017-03-20T00:39:49.558Z,0
2017-03-20T00:40:49.195Z,0
2017-03-20T00:41:49.461Z,0
2017-03-20T00:42:49.375Z,0
2017-03-20T00:43:49.308Z,0
2017-03-20T00:44:49.247Z,0
2017-03-20T00:45:48.880Z,0
2017-03-20T00:46:49.122Z,0
2017-03-20T00:47:49.057Z,0
2017-03-20T00:48:49.000Z,0
2017-03-20T00:49:48.629Z,0
2017-03-20T00:50:48.565Z,0
2017-03-20T00:51:48.809Z,0
2017-03-20T00:52:48.449Z,0
2017-03-20T00:53:48.391Z,0
2017-03-20T00:54:48.629Z,0
2017-03-20T00:55:48.256Z,0
2017-03-20T00:56:48.500Z,0
2017-03-20T00:57:48.144Z,0
2017-03-20T00:58:48.382Z,0
2017-03-20T00:59:48.318Z,0
2017-03-20T01:01:17.694Z,0
2017-03-20T01:02:17.628Z,0
2017-03-20T01:03:17.570Z,0
2017-03-20T01:04:17.516Z,0
2017-03-20T01:05:17.439Z,0
2017-03-20T01:06:17.381Z,0
2017-03-20T01:07:17.317Z,0
2017-03-20T01:08:16.955Z,0
2017-03-20T01:09:17.196Z,0
2017-03-20T01:10:17.141Z,0
2017-03-20T01:11:16.767Z,0
2017-03-20T01:12:16.709Z,0
2017-03-20T01:13:16.947Z,0
2017-03-20T01:14:16.889Z,0
2017-03-20T01:15:16.516Z,0
2017-03-20T01:16:16.754Z,0
2017-03-20T01:17:16.700Z,0
2017-03-20T01:18:16.637Z,0
2017-03-20T01:19:16.577Z,0
2017-03-20T01:20:16.510Z,0
2017-03-20T01:21:16.446Z,0
2017-03-20T01:22:16.385Z,0
2017-03-20T01:23:16.323Z,0
2017-03-20T01:24:16.265Z,0
2017-03-20T01:25:16.204Z,0
2017-03-20T01:26:16.136Z,0
2017-03-20T01:27:16.077Z,0
2017-03-20T01:28:16.020Z,0
2017-03-20T01:29:15.952Z,0
2017-03-20T01:30:15.892Z,0
2017-03-20T01:31:15.835Z,0
2017-03-20T01:32:15.766Z,0
2017-03-20T01:33:15.704Z,0
2017-03-20T01:34:15.643Z,0
2017-03-20T01:35:15.586Z,0
2017-03-20T01:36:15.517Z,0
2017-03-20T01:37:15.455Z,0
2017-03-20T01:38:15.398Z,0
2017-03-20T01:39:15.340Z,0
2017-03-20T01:40:15.269Z,0
2017-03-20T01:41:15.209Z,0
2017-03-20T01:42:15.143Z,0
2017-03-20T01:43:15.092Z,0
2017-03-20T01:44:14.766Z,0
2017-03-20T01:45:14.983Z,0
2017-03-20T01:46:14.597Z,0
2017-03-20T01:47:14.834Z,0
2017-03-20T01:48:14.476Z,0
2017-03-20T01:49:14.715Z,0
2017-03-20T01:50:14.348Z,0
2017-03-20T01:51:14.590Z,0
2017-03-20T01:52:14.522Z,0
2017-03-20T01:53:14.468Z,0
2017-03-20T01:54:14.404Z,0
2017-03-20T01:55:14.345Z,0
2017-03-20T01:56:14.275Z,0
2017-03-20T01:57:14.363Z,0
2017-03-20T01:58:14.162Z,0
2017-03-20T01:59:14.128Z,0
2017-03-20T02:00:13.729Z,0
2017-03-20T02:01:13.966Z,0
2017-03-20T02:02:13.913Z,0
2017-03-20T02:03:13.869Z,0
2017-03-20T02:04:13.786Z,0
2017-03-20T02:05:13.717Z,0
2017-03-20T02:06:13.359Z,0
2017-03-20T02:07:13.596Z,0
2017-03-20T02:08:12.937Z,0
2017-03-20T02:09:13.481Z,0
2017-03-20T02:10:13.419Z,0
2017-03-20T02:11:13.343Z,0
2017-03-20T02:12:12.992Z,0
2017-03-20T02:13:13.226Z,0
2017-03-20T02:14:13.161Z,0
2017-03-20T02:15:13.101Z,0
2017-03-20T02:16:12.739Z,0
2017-03-20T02:17:12.971Z,0
2017-03-20T02:18:12.938Z,0
2017-03-20T02:19:12.854Z,0
2017-03-20T02:20:12.786Z,0
2017-03-20T02:21:12.726Z,0
2017-03-20T02:22:12.662Z,0
2017-03-20T02:23:12.605Z,0
2017-03-20T02:24:12.246Z,0
2017-03-20T02:25:12.186Z,0
2017-03-20T02:26:12.415Z,0
2017-03-20T02:27:12.357Z,0
2017-03-20T02:28:12.004Z,0
2017-03-20T02:29:12.232Z,0
2017-03-20T02:30:12.198Z,0
2017-03-20T02:31:12.117Z,0
2017-03-20T02:32:11.745Z,0
2017-03-20T02:33:11.989Z,0
2017-03-20T02:34:11.919Z,0
2017-03-20T02:35:11.864Z,0
2017-03-20T02:36:11.802Z,0
2017-03-20T02:37:11.736Z,0
2017-03-20T02:38:11.375Z,0
2017-03-20T02:39:11.352Z,0
2017-03-20T02:40:11.253Z,0
2017-03-20T02:41:11.185Z,0
2017-03-20T02:42:11.130Z,0
2017-03-20T02:43:11.365Z,0
2017-03-20T02:44:11.341Z,0
2017-03-20T02:45:10.677Z,0
2017-03-20T02:46:11.177Z,0
2017-03-20T02:47:10.818Z,0
2017-03-20T02:48:11.056Z,0
2017-03-20T02:49:10.995Z,0
2017-03-20T02:50:10.933Z,0
2017-03-20T02:51:10.600Z,0
2017-03-20T02:52:10.510Z,0
2017-03-20T02:53:10.459Z,0
2017-03-20T02:54:10.381Z,0
2017-03-20T02:55:10.319Z,0
2017-03-20T02:56:10.556Z,0
2017-03-20T02:57:10.492Z,0
2017-03-20T02:58:10.435Z,0
2017-03-20T02:59:10.373Z,0
2017-03-20T03:00:10.306Z,0
2017-03-20T03:01:10.260Z,0
2017-03-20T03:02:10.185Z,0
2017-03-20T03:03:10.125Z,0
2017-03-20T03:04:10.060Z,0
2017-03-20T03:05:10.304Z,0
2017-03-20T03:06:09.638Z,0
2017-03-20T03:07:09.273Z,0
2017-03-20T03:08:09.515Z,0
2017-03-20T03:09:09.755Z,0
2017-03-20T03:10:09.788Z,0
2017-03-20T03:11:09.625Z,0
2017-03-20T03:12:09.567Z,0
2017-03-20T03:13:09.504Z,0
2017-03-20T03:14:09.443Z,0
2017-03-20T03:15:09.382Z,0
2017-03-20T03:16:09.017Z,0
2017-03-20T03:17:09.254Z,0
2017-03-20T03:18:09.201Z,0
2017-03-20T03:19:09.132Z,0
2017-03-20T03:20:09.068Z,0
2017-03-20T03:21:08.708Z,0
2017-03-20T03:22:08.646Z,0
2017-03-20T03:23:08.286Z,0
2017-03-20T03:24:07.923Z,0
2017-03-20T03:25:08.757Z,0
2017-03-20T03:26:08.695Z,0
2017-03-20T03:27:08.636Z,0
2017-03-20T03:28:07.977Z,0
2017-03-20T03:29:08.513Z,0
2017-03-20T03:30:08.448Z,0
2017-03-20T03:31:07.788Z,0
2017-03-20T03:32:08.031Z,0
2017-03-20T03:33:08.296Z,0
2017-03-20T03:34:07.907Z,0
2017-03-20T03:35:07.845Z,0
2017-03-20T03:36:08.076Z,0
2017-03-20T03:37:07.716Z,0
2017-03-20T03:38:07.356Z,0
2017-03-20T03:39:07.590Z,0
2017-03-20T03:40:07.533Z,0
2017-03-20T03:41:07.769Z,0
2017-03-20T03:42:07.706Z,0
2017-03-20T03:43:07.345Z,0
2017-03-20T03:44:07.582Z,0
2017-03-20T03:45:07.513Z,0
2017-03-20T03:46:07.162Z,0
2017-03-20T03:47:07.097Z,0
2017-03-20T03:48:07.333Z,0
2017-03-20T03:49:07.271Z,0
2017-03-20T03:50:07.215Z,0
2017-03-20T03:51:07.152Z,0
2017-03-20T03:52:07.082Z,0
2017-03-20T03:53:06.125Z,0
2017-03-20T03:54:06.065Z,0
2017-03-20T03:55:06.908Z,0
2017-03-20T03:56:05.938Z,0
2017-03-20T03:57:06.480Z,0
2017-03-20T03:58:06.717Z,0
2017-03-20T03:59:06.054Z,0
2017-03-20T04:00:06.594Z,0
2017-03-20T04:01:06.232Z,0
2017-03-20T04:02:06.467Z,0
2017-03-20T04:03:06.109Z,0
2017-03-20T04:04:06.352Z,0
2017-03-20T04:05:05.990Z,0
2017-03-20T04:06:06.218Z,0
2017-03-20T04:07:06.157Z,0
2017-03-20T04:08:06.115Z,0
2017-03-20T04:09:06.033Z,0
2017-03-20T04:10:06.013Z,0
2017-03-20T04:11:05.607Z,0
2017-03-20T04:12:05.541Z,0
2017-03-20T04:13:05.789Z,0
2017-03-20T04:14:05.734Z,0
2017-03-20T04:15:05.660Z,0
2017-03-20T04:16:05.598Z,0
2017-03-20T04:17:05.533Z,0
2017-03-20T04:18:05.479Z,0
2017-03-20T04:19:05.115Z,0
2017-03-20T04:20:05.056Z,0
2017-03-20T04:21:04.988Z,0
2017-03-20T04:22:04.924Z,0
2017-03-20T04:23:04.865Z,0
2017-03-20T04:24:04.813Z,0
2017-03-20T04:25:05.046Z,0
2017-03-20T04:26:04.975Z,0
2017-03-20T04:27:04.916Z,0
2017-03-20T04:28:04.254Z,0
2017-03-20T04:29:04.492Z,0
2017-03-20T04:30:04.738Z,0
2017-03-20T04:31:04.371Z,0
2017-03-20T04:32:04.305Z,0
2017-03-20T04:33:03.944Z,0
2017-03-20T04:34:04.179Z,0
2017-03-20T04:35:04.125Z,0
2017-03-20T04:36:04.056Z,0
2017-03-20T04:37:04.009Z,0
2017-03-20T04:38:03.976Z,0
2017-03-20T04:39:04.171Z,0
2017-03-20T04:40:04.107Z,0
2017-03-20T04:41:04.045Z,0
2017-03-20T04:42:03.685Z,0
2017-03-20T04:43:03.625Z,0
2017-03-20T04:44:03.865Z,0
2017-03-20T04:45:03.500Z,0
2017-03-20T04:46:03.734Z,0
2017-03-20T04:47:03.673Z,0
2017-03-20T04:48:03.317Z,0
2017-03-20T04:49:03.568Z,0
2017-03-20T04:50:03.495Z,0
2017-03-20T04:51:03.451Z,0
2017-03-20T04:52:03.364Z,0
2017-03-20T04:53:03.000Z,0
2017-03-20T04:54:02.937Z,0
2017-03-20T04:55:02.877Z,0
2017-03-20T04:56:02.547Z,0
2017-03-20T04:57:03.061Z,0
2017-03-20T04:58:02.990Z,0
2017-03-20T04:59:02.929Z,0
2017-03-20T05:00:02.981Z,0
2017-03-20T05:01:02.206Z,0
2017-03-20T05:02:02.144Z,0
2017-03-20T05:03:02.386Z,0
2017-03-20T05:04:02.322Z,0
2017-03-20T05:05:02.270Z,0
2017-03-20T05:06:02.491Z,0
2017-03-20T05:07:02.137Z,0
2017-03-20T05:08:02.371Z,0
2017-03-20T05:09:02.310Z,0
2017-03-20T05:10:02.248Z,0
2017-03-20T05:11:02.187Z,0
2017-03-20T05:12:02.124Z,0
2017-03-20T05:13:02.063Z,0
2017-03-20T05:14:01.701Z,0
2017-03-20T05:15:02.122Z,0
2017-03-20T05:16:01.870Z,0
2017-03-20T05:17:01.817Z,0
2017-03-20T05:18:01.756Z,0
2017-03-20T05:19:01.693Z,0
2017-03-20T05:20:01.878Z,0
2017-03-20T05:21:01.562Z,0
2017-03-20T05:22:01.498Z,0
2017-03-20T05:23:01.447Z,4
2017-03-20T05:24:01.379Z,4
2017-03-20T05:25:01.321Z,4
2017-03-20T05:26:01.249Z,4
2017-03-20T05:27:01.191Z,4
2017-03-20T05:28:01.130Z,4
2017-03-20T05:29:00.772Z,4
2017-03-20T05:30:00.719Z,4
2017-03-20T05:31:00.645Z,4
2017-03-20T05:32:00.575Z,4
2017-03-20T05:33:00.819Z,4
2017-03-20T05:34:00.759Z,4
2017-03-20T05:35:00.699Z,4
2017-03-20T05:36:00.631Z,4
2017-03-20T05:37:00.271Z,4
2017-03-20T05:37:59.927Z,4
2017-03-20T05:39:00.444Z,4
2017-03-20T05:40:00.385Z,4
2017-03-20T05:41:00.318Z,4
2017-03-20T05:42:00.259Z,4
2017-03-20T05:43:00.201Z,4
2017-03-20T05:44:00.147Z,4
2017-03-20T05:44:59.776Z,4
2017-03-20T05:46:00.011Z,4
2017-03-20T05:46:59.650Z,4
2017-03-20T05:47:59.891Z,4
2017-03-20T05:48:59.525Z,4
2017-03-20T05:49:59.476Z,4
2017-03-20T05:50:59.405Z,4
2017-03-20T05:51:59.644Z,4
2017-03-20T05:52:59.291Z,4
2017-03-20T05:53:59.519Z,4
2017-03-20T05:54:59.458Z,4
2017-03-20T05:55:59.389Z,4
2017-03-20T05:56:59.333Z,4
2017-03-20T05:57:59.270Z,4
2017-03-20T05:58:59.209Z,4
2017-03-20T05:59:58.859Z,4
2017-03-20T06:00:58.779Z,4
2017-03-20T06:01:58.718Z,4
2017-03-20T06:02:58.674Z,4
2017-03-20T06:03:58.620Z,4
2017-03-20T06:04:58.836Z,4
2017-03-20T06:05:58.768Z,4
2017-03-20T06:06:58.706Z,4
2017-03-20T06:07:58.650Z,4
2017-03-20T06:08:58.590Z,4
2017-03-20T06:09:58.530Z,4
2017-03-20T06:10:58.457Z,4
2017-03-20T06:11:58.403Z,4
2017-03-20T06:12:58.387Z,4
2017-03-20T06:13:58.278Z,4
2017-03-20T06:14:57.909Z,4
2017-03-20T06:15:57.862Z,4
2017-03-20T06:16:58.087Z,4
2017-03-20T06:17:58.039Z,4
2017-03-20T06:18:57.966Z,4
2017-03-20T06:19:57.906Z,4
2017-03-20T06:20:57.541Z,8
2017-03-20T06:21:57.775Z,8
2017-03-20T06:22:57.435Z,8
2017-03-20T06:23:57.686Z,4
2017-03-20T06:24:57.297Z,8
2017-03-20T06:25:57.525Z,8
2017-03-20T06:26:57.467Z,8
2017-03-20T06:27:57.444Z,8
2017-03-20T06:28:57.044Z,8
2017-03-20T06:29:57.294Z,8
2017-03-20T06:30:57.219Z,8
2017-03-20T06:31:56.854Z,8
2017-03-20T06:32:56.796Z,8
2017-03-20T06:33:56.740Z,4
2017-03-20T06:34:56.974Z,4
2017-03-20T06:35:56.948Z,8
2017-03-20T06:36:56.845Z,8
2017-03-20T06:37:56.786Z,8
2017-03-20T06:38:56.427Z,8
2017-03-20T06:39:56.367Z,8
2017-03-20T06:40:56.297Z,8
2017-03-20T06:41:56.537Z,8
2017-03-20T06:42:56.480Z,8
2017-03-20T06:43:56.416Z,8
2017-03-20T06:44:56.360Z,8
2017-03-20T06:45:56.321Z,8
2017-03-20T06:46:56.228Z,4
2017-03-20T06:47:55.865Z,8
2017-03-20T06:48:56.108Z,8
2017-03-20T06:49:56.042Z,8
2017-03-20T06:50:55.978Z,8
2017-03-20T06:51:55.614Z,8
2017-03-20T06:52:55.858Z,8
2017-03-20T06:53:55.795Z,8
2017-03-20T06:54:55.734Z,8
2017-03-20T06:55:55.364Z,8
2017-03-20T06:56:55.621Z,8
2017-03-20T06:57:55.542Z,8
2017-03-20T06:58:55.483Z,8
2017-03-20T06:59:55.422Z,12
2017-03-20T07:00:55.357Z,12
2017-03-20T07:01:55.295Z,12
2017-03-20T07:02:54.938Z,12
2017-03-20T07:03:55.213Z,12
2017-03-20T07:04:55.116Z,16
2017-03-20T07:05:54.750Z,12
2017-03-20T07:06:54.982Z,12
2017-03-20T07:07:54.935Z,12
2017-03-20T07:08:54.563Z,12
2017-03-20T07:09:54.805Z,12
2017-03-20T07:10:54.742Z,12
2017-03-20T07:11:54.677Z,8
2017-03-20T07:12:54.621Z,12
2017-03-20T07:13:54.554Z,12
2017-03-20T07:14:54.493Z,12
2017-03-20T07:15:54.431Z,12
2017-03-20T07:16:54.365Z,12
2017-03-20T07:17:54.313Z,12
2017-03-20T07:18:54.249Z,8
2017-03-20T07:19:53.886Z,8
2017-03-20T07:20:54.115Z,12
2017-03-20T07:21:54.055Z,8
2017-03-20T07:22:53.703Z,8
2017-03-20T07:23:53.638Z,12
2017-03-20T07:24:53.871Z,12
2017-03-20T07:25:53.515Z,12
2017-03-20T07:26:53.445Z,12
2017-03-20T07:27:53.402Z,12
2017-03-20T07:28:53.346Z,12
2017-03-20T07:29:53.279Z,12
2017-03-20T07:30:53.502Z,12
2017-03-20T07:31:53.439Z,16
2017-03-20T07:32:53.380Z,16
2017-03-20T07:33:53.327Z,12
2017-03-20T07:34:53.252Z,16
2017-03-20T07:35:53.187Z,12
2017-03-20T07:36:52.828Z,16
2017-03-20T07:37:52.759Z,16
2017-03-20T07:38:53.003Z,16
2017-03-20T07:39:52.940Z,12
2017-03-20T07:40:52.583Z,12
2017-03-20T07:41:52.527Z,12
2017-03-20T07:42:52.466Z,16
2017-03-20T07:43:52.705Z,12
2017-03-20T07:44:52.635Z,12
2017-03-20T07:45:52.712Z,12
2017-03-20T07:46:52.510Z,12
2017-03-20T07:47:52.143Z,8
2017-03-20T07:48:52.388Z,8
2017-03-20T07:49:52.325Z,12
2017-03-20T07:50:52.352Z,8
2017-03-20T07:51:52.190Z,12
2017-03-20T07:52:52.139Z,8
2017-03-20T07:53:51.774Z,8
2017-03-20T07:54:52.011Z,12
2017-03-20T07:55:51.953Z,12
2017-03-20T07:56:51.883Z,12
2017-03-20T07:57:51.524Z,12
2017-03-20T07:58:51.463Z,12
2017-03-20T07:59:51.699Z,12
2017-03-20T08:00:51.638Z,16
2017-03-20T08:01:51.575Z,16
2017-03-20T08:02:51.517Z,16
2017-03-20T08:03:51.454Z,16
2017-03-20T08:04:51.392Z,16
2017-03-20T08:05:51.333Z,16
2017-03-20T08:06:51.265Z,20
2017-03-20T08:07:51.160Z,12
2017-03-20T08:08:51.147Z,12
2017-03-20T08:09:51.077Z,12
2017-03-20T08:10:50.750Z,12
2017-03-20T08:11:50.964Z,12
2017-03-20T08:12:50.914Z,8
2017-03-20T08:13:50.841Z,12
2017-03-20T08:14:50.805Z,12
2017-03-20T08:15:50.702Z,12
2017-03-20T08:16:50.647Z,12
2017-03-20T08:17:50.626Z,12
2017-03-20T08:18:50.523Z,12
2017-03-20T08:19:50.459Z,12
2017-03-20T08:20:50.099Z,12
2017-03-20T08:21:50.044Z,12
2017-03-20T08:22:50.277Z,12
2017-03-20T08:23:50.232Z,16
2017-03-20T08:24:50.149Z,16
2017-03-20T08:25:50.083Z,12
2017-03-20T08:26:50.025Z,16
2017-03-20T08:27:49.967Z,20
2017-03-20T08:28:49.908Z,20
2017-03-20T08:29:49.841Z,20
2017-03-20T08:30:49.774Z,16
2017-03-20T08:31:49.715Z,16
2017-03-20T08:32:49.354Z,16
2017-03-20T08:33:49.599Z,20
2017-03-20T08:34:49.526Z,20
2017-03-20T08:35:49.167Z,16
2017-03-20T08:36:49.108Z,16
2017-03-20T08:37:49.343Z,20
2017-03-20T08:38:49.281Z,24
2017-03-20T08:39:49.219Z,24
2017-03-20T08:40:49.153Z,20
2017-03-20T08:41:49.093Z,24
2017-03-20T08:42:49.037Z,24
2017-03-20T08:43:48.978Z,20
2017-03-20T08:44:48.914Z,20
2017-03-20T08:45:48.851Z,24
2017-03-20T08:46:48.785Z,28
2017-03-20T08:47:48.726Z,24
2017-03-20T08:48:48.663Z,28
2017-03-20T08:49:48.597Z,28
2017-03-20T08:50:48.535Z,28
2017-03-20T08:51:48.472Z,24
2017-03-20T08:52:48.417Z,28
2017-03-20T08:53:48.354Z,28
2017-03-20T08:54:48.292Z,28
2017-03-20T08:55:48.222Z,32
2017-03-20T08:56:48.161Z,32
2017-03-20T08:57:48.106Z,28
2017-03-20T08:58:48.046Z,28
2017-03-20T08:59:47.980Z,28
2017-03-20T09:00:47.920Z,28
2017-03-20T09:01:47.855Z,28
2017-03-20T09:02:47.804Z,28
2017-03-20T09:03:47.735Z,28
2017-03-20T09:04:47.675Z,28
2017-03-20T09:05:47.607Z,28
2017-03-20T09:06:47.545Z,28
2017-03-20T09:07:47.490Z,28
2017-03-20T09:08:47.121Z,24
2017-03-20T09:09:47.357Z,24
2017-03-20T09:10:47.000Z,20
2017-03-20T09:11:47.233Z,20
2017-03-20T09:12:47.184Z,16
2017-03-20T09:13:46.813Z,16
2017-03-20T09:14:46.752Z,20
2017-03-20T09:15:46.686Z,20
2017-03-20T09:16:46.931Z,20
2017-03-20T09:17:46.574Z,16
2017-03-20T09:18:46.818Z,16
2017-03-20T09:19:46.740Z,16
2017-03-20T09:20:46.974Z,16
2017-03-20T09:21:46.319Z,20
2017-03-20T09:22:46.553Z,20
2017-03-20T09:23:46.513Z,20
2017-03-20T09:24:46.897Z,20
2017-03-20T09:25:46.558Z,20
2017-03-20T09:26:46.491Z,16
2017-03-20T09:27:46.254Z,20
2017-03-20T09:28:46.189Z,16
2017-03-20T09:29:46.119Z,12
2017-03-20T09:30:46.159Z,16
2017-03-20T09:31:45.995Z,12
2017-03-20T09:32:46.167Z,12
2017-03-20T09:33:45.883Z,12
2017-03-20T09:34:45.816Z,12
2017-03-20T09:35:45.666Z,16
2017-03-20T09:36:45.391Z,16
2017-03-20T09:37:45.629Z,16
2017-03-20T09:38:45.567Z,16
2017-03-20T09:39:45.511Z,16
2017-03-20T09:40:45.143Z,16
2017-03-20T09:41:45.395Z,16
2017-03-20T09:42:45.341Z,12
2017-03-20T09:43:45.256Z,12
2017-03-20T09:44:45.188Z,16
2017-03-20T09:45:44.843Z,20
2017-03-20T09:46:45.065Z,20
2017-03-20T09:47:44.708Z,20
2017-03-20T09:48:44.682Z,20
2017-03-20T09:49:44.874Z,20
2017-03-20T09:50:44.923Z,20
2017-03-20T09:51:44.845Z,20
2017-03-20T09:52:44.394Z,16
2017-03-20T09:53:44.629Z,20
2017-03-20T09:54:44.573Z,20
2017-03-20T09:55:44.516Z,16
2017-03-20T09:56:44.444Z,16
2017-03-20T09:57:44.407Z,20
2017-03-20T09:58:44.539Z,20
2017-03-20T09:59:44.303Z,16
2017-03-20T10:00:44.049Z,16
2017-03-20T10:01:44.147Z,20
2017-03-20T10:02:43.783Z,20
2017-03-20T10:03:43.716Z,20
2017-03-20T10:04:43.959Z,20
2017-03-20T10:05:44.036Z,20
2017-03-20T10:06:43.830Z,68
2017-03-20T10:07:43.769Z,80
2017-03-20T10:08:43.105Z,88
2017-03-20T10:09:43.337Z,88
2017-03-20T10:10:43.527Z,84
2017-03-20T10:11:43.219Z,84
2017-03-20T10:12:43.158Z,84
2017-03-20T10:13:43.098Z,84
2017-03-20T10:14:43.329Z,80
2017-03-20T10:15:43.524Z,84
2017-03-20T10:16:43.228Z,84
2017-03-20T10:17:42.562Z,84
2017-03-20T10:18:43.095Z,84
2017-03-20T10:19:42.726Z,84
2017-03-20T10:20:42.960Z,80
2017-03-20T10:21:42.602Z,80
2017-03-20T10:22:42.858Z,84
2017-03-20T10:23:42.787Z,84
2017-03-20T10:24:42.725Z,84
2017-03-20T10:25:42.656Z,84
2017-03-20T10:26:42.585Z,88
2017-03-20T10:27:42.227Z,88
2017-03-20T10:28:42.472Z,88
2017-03-20T10:29:42.411Z,88
2017-03-20T10:30:42.090Z,88
2017-03-20T10:31:42.276Z,84
2017-03-20T10:32:41.626Z,84
2017-03-20T10:33:42.158Z,84
2017-03-20T10:34:41.797Z,20
2017-03-20T10:35:42.050Z,16
2017-03-20T10:36:41.970Z,20
2017-03-20T10:37:41.913Z,20
2017-03-20T10:38:41.853Z,24
2017-03-20T10:39:41.485Z,24
2017-03-20T10:40:41.723Z,20
2017-03-20T10:41:41.369Z,20
2017-03-20T10:42:41.604Z,20
2017-03-20T10:43:41.545Z,16
2017-03-20T10:44:40.920Z,20
2017-03-20T10:45:41.120Z,24
2017-03-20T10:46:41.058Z,24
2017-03-20T10:47:41.295Z,24
2017-03-20T10:48:41.231Z,28
2017-03-20T10:49:41.200Z,28
2017-03-20T10:50:40.836Z,28
2017-03-20T10:51:41.044Z,32
2017-03-20T10:52:40.982Z,32
2017-03-20T10:53:40.936Z,32
2017-03-20T10:54:40.859Z,32
2017-03-20T10:55:40.496Z,28
2017-03-20T10:56:40.435Z,28
2017-03-20T10:57:40.682Z,28
2017-03-20T10:58:40.615Z,28
2017-03-20T10:59:40.783Z,28
2017-03-20T11:00:39.896Z,28
2017-03-20T11:01:40.124Z,24
2017-03-20T11:02:39.768Z,28
2017-03-20T11:03:40.006Z,28
2017-03-20T11:04:39.948Z,32
2017-03-20T11:05:39.882Z,28
2017-03-20T11:06:39.820Z,28
2017-03-20T11:07:39.759Z,24
2017-03-20T11:08:39.999Z,28
2017-03-20T11:09:39.635Z,28
2017-03-20T11:10:40.068Z,28
2017-03-20T11:11:39.812Z,32
2017-03-20T11:12:39.755Z,32
2017-03-20T11:13:39.690Z,32
2017-03-20T11:14:39.662Z,36
2017-03-20T11:15:39.305Z,36
2017-03-20T11:16:39.198Z,36
2017-03-20T11:17:39.143Z,36
2017-03-20T11:18:39.125Z,40
2017-03-20T11:19:39.318Z,40
2017-03-20T11:20:39.258Z,36
2017-03-20T11:21:39.190Z,36
2017-03-20T11:22:39.138Z,36
2017-03-20T11:23:38.776Z,36
2017-03-20T11:24:39.006Z,36
2017-03-20T11:25:38.996Z,36
2017-03-20T11:26:38.590Z,32
2017-03-20T11:27:38.825Z,36
2017-03-20T11:28:38.171Z,36
2017-03-20T11:29:38.703Z,32
2017-03-20T11:30:38.890Z,28
2017-03-20T11:31:38.276Z,28
2017-03-20T11:32:38.216Z,28
2017-03-20T11:33:38.460Z,28
2017-03-20T11:34:37.790Z,28
2017-03-20T11:35:38.034Z,28
2017-03-20T11:36:38.267Z,32
2017-03-20T11:37:37.902Z,32
2017-03-20T11:38:37.249Z,28
2017-03-20T11:39:37.776Z,32
2017-03-20T11:40:38.019Z,32
2017-03-20T11:41:37.656Z,24
2017-03-20T11:42:37.906Z,24
2017-03-20T11:43:37.854Z,24
2017-03-20T11:44:37.771Z,24
2017-03-20T11:45:37.416Z,24
2017-03-20T11:46:37.646Z,24
2017-03-20T11:47:37.295Z,24
2017-03-20T11:48:37.528Z,24
2017-03-20T11:49:37.166Z,24
2017-03-20T11:50:37.437Z,24
2017-03-20T11:51:37.340Z,24
2017-03-20T11:52:37.314Z,28
2017-03-20T11:53:37.221Z,24
2017-03-20T11:54:37.150Z,24
2017-03-20T11:55:36.796Z,28
2017-03-20T11:56:37.038Z,28
2017-03-20T11:57:36.668Z,28
2017-03-20T11:58:36.909Z,36
2017-03-20T11:59:36.564Z,32
2017-03-20T12:00:36.786Z,32
2017-03-20T12:01:36.770Z,36
2017-03-20T12:02:36.360Z,28
2017-03-20T12:03:36.602Z,24
2017-03-20T12:04:36.534Z,20
2017-03-20T12:05:36.780Z,24
2017-03-20T12:06:36.419Z,20
2017-03-20T12:07:36.368Z,24
2017-03-20T12:08:36.289Z,24
2017-03-20T12:09:36.229Z,28
2017-03-20T12:10:36.168Z,24
2017-03-20T12:11:36.108Z,24
2017-03-20T12:12:36.046Z,24
2017-03-20T12:13:35.990Z,24
2017-03-20T12:14:35.626Z,28
2017-03-20T12:15:35.565Z,28
2017-03-20T12:16:35.499Z,28
2017-03-20T12:17:35.440Z,28
2017-03-20T12:18:35.377Z,24
2017-03-20T12:19:35.616Z,24
2017-03-20T12:20:35.553Z,28
2017-03-20T12:21:35.194Z,28
2017-03-20T12:22:35.427Z,32
2017-03-20T12:23:35.368Z,32
2017-03-20T12:24:35.001Z,36
2017-03-20T12:25:49.946Z,40
2017-03-20T12:26:35.179Z,40
2017-03-20T12:27:35.123Z,44
2017-03-20T12:28:35.062Z,36
2017-03-20T12:29:34.710Z,44
2017-03-20T12:30:34.636Z,44
2017-03-20T12:31:34.570Z,44
2017-03-20T12:32:34.815Z,40
2017-03-20T12:33:34.761Z,44
2017-03-20T12:34:34.386Z,40
2017-03-20T12:35:34.326Z,36
2017-03-20T12:36:34.568Z,36
2017-03-20T12:37:34.222Z,36
2017-03-20T12:38:34.649Z,36
2017-03-20T12:39:33.778Z,32
2017-03-20T12:40:34.318Z,28
2017-03-20T12:41:34.253Z,28
2017-03-20T12:42:34.417Z,24
2017-03-20T12:43:34.138Z,20
2017-03-20T12:44:34.071Z,20
2017-03-20T12:45:33.708Z,20
2017-03-20T12:46:33.954Z,20
2017-03-20T12:47:33.889Z,20
2017-03-20T12:48:33.225Z,20
2017-03-20T12:49:33.165Z,20
2017-03-20T12:50:33.399Z,16
2017-03-20T12:51:33.337Z,16
2017-03-20T12:52:33.617Z,16
2017-03-20T12:53:33.517Z,12
2017-03-20T12:54:33.160Z,16
2017-03-20T12:55:33.407Z,20
2017-03-20T12:56:33.332Z,20
2017-03-20T12:57:33.279Z,20
2017-03-20T12:58:33.207Z,16
2017-03-20T12:59:33.147Z,20
2017-03-20T13:00:32.782Z,24
2017-03-20T13:01:32.730Z,20
2017-03-20T13:02:32.959Z,24
2017-03-20T13:03:32.613Z,32
2017-03-20T13:04:32.539Z,28
2017-03-20T13:05:32.179Z,28
2017-03-20T13:06:32.711Z,28
2017-03-20T13:07:32.650Z,32
2017-03-20T13:08:32.602Z,36
2017-03-20T13:09:32.233Z,36
2017-03-20T13:10:32.469Z,32
2017-03-20T13:11:31.505Z,32
2017-03-20T13:12:32.345Z,32
2017-03-20T13:13:32.293Z,32
2017-03-20T13:14:31.937Z,28
2017-03-20T13:15:31.259Z,28
2017-03-20T13:16:31.198Z,24
2017-03-20T13:17:31.436Z,24
2017-03-20T13:18:31.374Z,24
2017-03-20T13:19:31.915Z,24
2017-03-20T13:20:31.251Z,28
2017-03-20T13:21:31.188Z,24
2017-03-20T13:22:31.124Z,24
2017-03-20T13:23:31.670Z,20
2017-03-20T13:24:31.305Z,20
2017-03-20T13:25:31.247Z,20
2017-03-20T13:26:31.478Z,20
2017-03-20T13:27:31.117Z,28
2017-03-20T13:28:31.361Z,36
2017-03-20T13:29:31.305Z,40
2017-03-20T13:30:31.235Z,44
2017-03-20T13:31:31.178Z,40
2017-03-20T13:32:30.807Z,48
2017-03-20T13:33:30.755Z,44
2017-03-20T13:34:30.687Z,44
2017-03-20T13:35:30.923Z,44
2017-03-20T13:36:30.868Z,44
2017-03-20T13:37:30.717Z,44
2017-03-20T13:38:30.746Z,40
2017-03-20T13:39:30.383Z,40
2017-03-20T13:40:30.617Z,36
2017-03-20T13:41:30.258Z,36
2017-03-20T13:42:30.043Z,28
2017-03-20T13:43:30.438Z,28
2017-03-20T13:44:30.376Z,28
2017-03-20T13:45:30.258Z,28
2017-03-20T13:46:30.247Z,24
2017-03-20T13:47:30.182Z,24
2017-03-20T13:48:30.128Z,24
2017-03-20T13:49:30.317Z,24
2017-03-20T13:50:30.000Z,28
2017-03-20T13:51:29.937Z,32
2017-03-20T13:52:29.877Z,28
2017-03-20T13:53:29.817Z,28
2017-03-20T13:54:29.907Z,28
2017-03-20T13:55:29.693Z,24
2017-03-20T13:56:29.330Z,20
2017-03-20T13:57:29.272Z,20
2017-03-20T13:58:29.503Z,28
2017-03-20T13:59:29.704Z,36
2017-03-20T14:00:29.389Z,44
2017-03-20T14:01:29.329Z,40
2017-03-20T14:02:28.659Z,88
2017-03-20T14:03:28.605Z,104
2017-03-20T14:04:28.542Z,108
2017-03-20T14:05:28.779Z,112
2017-03-20T14:06:28.715Z,104
2017-03-20T14:07:28.710Z,100
2017-03-20T14:08:28.897Z,100
2017-03-20T14:09:29.078Z,100
2017-03-20T14:10:28.471Z,100
2017-03-20T14:11:28.705Z,100
2017-03-20T14:12:28.344Z,104
2017-03-20T14:13:27.981Z,108
2017-03-20T14:14:28.521Z,108
2017-03-20T14:15:28.459Z,104
2017-03-20T14:16:28.394Z,104
2017-03-20T14:17:28.046Z,104
2017-03-20T14:18:28.276Z,100
2017-03-20T14:19:28.226Z,96
2017-03-20T14:20:28.102Z,92
2017-03-20T14:21:27.786Z,92
2017-03-20T14:22:28.038Z,92
2017-03-20T14:23:28.056Z,88
2017-03-20T14:24:27.619Z,92
2017-03-20T14:25:27.842Z,92
2017-03-20T14:26:27.783Z,88
2017-03-20T14:27:27.723Z,92
2017-03-20T14:28:27.672Z,92
2017-03-20T14:29:27.301Z,92
2017-03-20T14:30:27.238Z,92